Scroll down
FLIGHT INFORMATION
Alaska Airlines

ASA7096

At Arrival Gate

PANC
 KSEA
DATE: 2020-08-10
GATE:  -
GATE DEPARTURE: 13:34
TAKEOFF: 13:43
DATE: 2020-08-10
GATE:  -
LANDING: 16:43
GATE ARRIVAL: 16:49
FLIGHT DATA
Crew: 
Speed: 
467 kts
Altitude: 
37,007 ft
Stage Length: 
1,255.6 nm
Block Time: 
3.3 hrs
Flight Time: 
3 hrs
Fuel Used: 
16,523 lb
Cleared Route: PANC NOEND LAIRE BKA DUGGS YYJ KSEA
TRACK DATA
50,000 ft 1,000 kts
AIRCRAFT INFO AND CUMULATIVE STATS
Aircraft Type: 
B737BDSF
Registration: 
SELCAL: 
AQKL
MSN/LN: 
30792 / 754
Operator: 
Total Flights: 
14
Total Block Time: 
44.7 hrs
Total Flight Time: 
41.6 hrs
Total Fuel Time: 
239,863 lb
DATALINK LOG | Newest first | Current as of: 2020-12-03 00:20:23
LABEL SEQUENCE CONTENT Dn/Up
QD471916:49 6.1▼ Dn
QC421416:43▼ Dn
2U0100KSEA 101553Z 00000KT 10SM FEW250 19/12 A3014 RMK AO2 SLP212 T01890117 $▲ Up
2S0100KSEA▼ Dn
GA0405ADVANCED GATE ASSIGNMENTS NOT YET AVAILABLE AT THIS AIRPORT▲ Up
GR0405KSEA 16:40 HI-VAL NO DIPL/VIP NO▼ Dn
5R0305BKA 14:55z FL369 DUGGS 15:33z YYJ M0.79 14.2 -46 255/39 RW34R 16:40z▼ Dn
2U3414KSEA 101353Z 28004KT 10SM FEW200 14/11 A3015 RMK AO2 SLP215 T01440111▲ Up
2S3414KSEA▼ Dn
2U1658WEATHER SERVICE UNAVAILABLE▲ Up
2S1657KSEA▼ Dn
QB442513:43▼ Dn
QA351613:34 22.7▼ Dn
A31508CLEARED TO KSEA VIA NOEND4 NOEND LAIRE BKA DUGGS YYJ MARNR7. SQUAWK .▲ Up
B31457PANC KSEA ASA7096 ASA Z ▼ Dn
2U0751PANC 101253Z 20005KT 10SM -RA BKN065 13/12 A2974 RMK AO2 SLP071 P0001 T01330117▲ Up
2U0750KSEA 101253Z 14003KT 10SM CLR 16/11 A3015 RMK AO2 SLP214 T01560111▲ Up
2S0750PANC KSEA▼ Dn
Q00649[LINK ACK]▲ Up
Q00649[LINK TEST]▼ Dn


AIRCRAFT HISTORY
FLIGHT DATE FLIGHT NO. ORIGIN DESTINATION CLEARED ROUTE BLOCK TIME FLIGHT TIME FUEL USED PILOT
2020-11-13ASA713KPDX KRNO KPDX PAWLI BAARB HARTT KRNO1.4 hrs1 hrs4,757 lbCharles Harris
2020-11-12ASA813KSEA KPDX KSEA SEA BUWZO KPDX0.9 hrs0.6 hrs3,897 lbCharles Harris
2020-09-11KSPS KSEA KSPS SPS LAA HGO QUAIL FQF OCS PIH DNJ BEAMO PDT KSEA3.7 hrs3.4 hrs17,059 lb-HIDDEN-
2020-08-28ASA51KSEA KSPS KSEA SEA YKM BKE HOVEL BOI TWF TCH JNC ALS PNH COMER RW15R3.3 hrs3 hrs17,673 lbWILLIAM BRIDGES
2020-08-24ASA255KLAS KSEA KLAS OAL LOMIA LKV KSEA2.1 hrs1.9 hrs10,937 lb-HIDDEN-
2020-08-24ASA235KBUR KLAS KBUR RAYVE SLAPP YAAPY JETHK BBITE ANTLP NNAVY MISEN CLARR SKEBR KEPEC IPUMY NIPZO SUNST KIMME CHIPZ POKRR PRINO SKEBR RW01R0.9 hrs0.7 hrs4,793 lb-HIDDEN-
2020-08-23ASA333PAWG KBUR PAWG LVD DOOZI GESTI ANN CFSTF HANRY DUGGS PRYCE YZT INHAM CFSKH TOU WAPTO HQM OED HANDY RBL SAC LHS KBUR3.8 hrs3.5 hrs19,499 lb-HIDDEN-
2020-08-16ASA62KSEA PAWG KSEA CAVOB RENBE RICHR TOMRE BANGR PANGL QQNB LVD RGL20 RGL13 RGL10 RGL07 RGL04 RGL03 ZERUM RW282.1 hrs1.8 hrs10,430 lb-HIDDEN-
2020-08-16ASA7061KBOS KSEA KBOS HYLND HANAA ARNII GOATR AHPAH KELTI AGDOX OMRAK HOCKE DABJU DLL HARPI RWF DPR RECAP BIL HIA LEZLE SUNED KSEA5.8 hrs5.4 hrs30,780 lbKurt Kalbfleisch
2020-08-12ASA812KSEA KBOS KSEA SEA ZADON ZELAK ZIRAN MLP GTF COKEE WILTN TTAIL SNARG RUBKI PEPLA SIKBO RAGIX MEDAV AHPAH GONZZ PONCT STOLI MNSTA SEETS DUBLE BASEZ JFUND AUTUM WINTA HRRIS ISLAY LWLND WYANE RW22L5 hrs4.9 hrs39,412 lbRandall Smith
2020-08-10ASA7096PANC KSEA PANC NOEND LAIRE BKA DUGGS YYJ KSEA3.3 hrs3 hrs16,523 lbBig Swede
2020-08-09ASA605KSDF PANC 7 hrs6.8 hrs37,420 lb-HIDDEN-
2020-08-09ASA602KSEA KSDF KSEA SEA NORMY BLUIT MWH ODESS HLN BIL RECAP DPR FSD SIMJI FOD IOW PIA CMI TTH SCOTO FRIZN HONOS PROUF HAUGN LEWSS BRBON RW35R4 hrs3.7 hrs16,497 lb-HIDDEN-
2020-08-08ASA737PASI KSEA PASI BKA DUGGS YYJ KSEA2 hrs1.8 hrs10,185 lb-HIDDEN-